createdAt,value
2023-04-25T00:00:26.238Z,98777.31
2023-04-25T00:02:57.275Z,98772.13
2023-04-25T00:05:31.667Z,98770.28
2023-04-25T00:08:05.223Z,98758.75
2023-04-25T00:10:37.101Z,98762.75
2023-04-25T00:13:05.577Z,98770.28
2023-04-25T00:15:42.147Z,98758.59
2023-04-25T00:18:23.265Z,98757.75
2023-04-25T00:20:55.128Z,98766.44
2023-04-25T00:23:25.891Z,98759.44
2023-04-25T00:25:55.393Z,98772.13
2023-04-25T00:28:24.445Z,98760.59
2023-04-25T00:30:55.504Z,98749.59
2023-04-25T00:33:24.447Z,98781.31
2023-04-25T00:36:01.793Z,98754.44
2023-04-25T00:38:30.822Z,98773.31
2023-04-25T00:41:08.222Z,98758.94
2023-04-25T00:43:39.027Z,98747.94
2023-04-25T00:46:15.343Z,98747.25
2023-04-25T00:48:45.086Z,98745.41
2023-04-25T00:51:18.271Z,98749.75
2023-04-25T00:53:49.548Z,98765.41
2023-04-25T00:56:24.125Z,98756.44
2023-04-25T00:58:57.997Z,98757.44
2023-04-25T01:01:45.162Z,98748.09
2023-04-25T01:04:13.791Z,98752.41
2023-04-25T01:07:00.304Z,98767.25
2023-04-25T01:09:30.871Z,98746.75
2023-04-25T01:12:03.907Z,98747.59
2023-04-25T01:14:34.991Z,98745.25
2023-04-25T01:17:10.980Z,98766.94
2023-04-25T01:19:39.590Z,98738.06
2023-04-25T01:22:25.332Z,98749.13
2023-04-25T01:24:54.865Z,98743.78
2023-04-25T01:27:26.315Z,98747.56
2023-04-25T01:29:58.656Z,98754.63
2023-04-25T01:32:28.330Z,98755.47
2023-04-25T01:34:58.243Z,98752.25
2023-04-25T01:37:33.739Z,98737.75
2023-04-25T01:40:07.146Z,98763.97
2023-04-25T01:42:47.464Z,98742.56
2023-04-25T01:45:16.683Z,98742.75
2023-04-25T01:47:50.613Z,98752.78
2023-04-25T01:50:22.859Z,98758.63
2023-04-25T01:52:55.526Z,98738.09
2023-04-25T01:55:31.417Z,98745.59
2023-04-25T01:58:14.026Z,98755.78
2023-04-25T02:01:12.108Z,98758.63
2023-04-25T02:03:56.262Z,98739.75
2023-04-25T02:06:44.084Z,98756.28
2023-04-25T02:09:22.419Z,98748.56
2023-04-25T02:11:58.865Z,98751.91
2023-04-25T02:14:30.920Z,98743.91
2023-04-25T02:17:35.118Z,98749.75
2023-04-25T02:20:07.752Z,98752.91
2023-04-25T02:22:42.100Z,98747.25
2023-04-25T02:25:18.112Z,98747.44
2023-04-25T02:27:49.767Z,98751.75
2023-04-25T02:30:30.674Z,98761.59
2023-04-25T02:33:11.463Z,98754.91
2023-04-25T02:35:42.507Z,98747.88
2023-04-25T02:38:16.124Z,98747.38
2023-04-25T02:40:48.702Z,98743.59
2023-04-25T02:43:35.445Z,98740.41
2023-04-25T02:46:06.404Z,98740.25
2023-04-25T02:48:36.097Z,98739.72
2023-04-25T02:51:07.386Z,98733.72
2023-04-25T02:53:37.593Z,98734.22
2023-04-25T02:56:08.685Z,98740.53
2023-04-25T02:58:43.517Z,98724.88
2023-04-25T03:01:14.974Z,98726.53
2023-04-25T03:03:50.196Z,98729.38
2023-04-25T03:06:22.674Z,98727.53
2023-04-25T03:08:59.672Z,98732.88
2023-04-25T03:11:31.436Z,98723.53
2023-04-25T03:14:03.524Z,98741.38
2023-04-25T03:16:32.618Z,98751.88
2023-04-25T03:19:03.371Z,98738.88
2023-04-25T03:21:33.411Z,98731.19
2023-04-25T03:24:05.148Z,98745.13
2023-04-25T03:26:43.008Z,98735.00
2023-04-25T03:29:12.960Z,98738.22
2023-04-25T03:31:49.176Z,98739.50
2023-04-25T03:34:22.561Z,98737.97
2023-04-25T03:37:01.688Z,98743.53
2023-04-25T03:39:36.180Z,98743.50
2023-04-25T03:42:13.202Z,98737.50
2023-04-25T03:44:47.587Z,98747.84
2023-04-25T03:47:24.857Z,98744.66
2023-04-25T03:49:54.143Z,98756.84
2023-04-25T03:52:25.563Z,98745.19
2023-04-25T03:54:56.812Z,98741.16
2023-04-25T03:57:31.534Z,98747.19
2023-04-25T04:00:07.295Z,98756.63
2023-04-25T04:02:58.814Z,98757.31
2023-04-25T04:05:36.382Z,98753.97
2023-04-25T04:08:11.456Z,98751.75
2023-04-25T04:10:44.366Z,98763.47
2023-04-25T04:13:29.003Z,98762.63
2023-04-25T04:16:02.781Z,98755.91
2023-04-25T04:18:33.282Z,98764.94
2023-04-25T04:21:01.766Z,98772.06
2023-04-25T04:23:42.256Z,98769.06
2023-04-25T04:26:21.708Z,98771.81
2023-04-25T04:29:02.989Z,98780.72
2023-04-25T04:32:05.108Z,98772.72
2023-04-25T04:34:46.050Z,98786.38
2023-04-25T04:37:30.155Z,98772.72
2023-04-25T04:40:06.311Z,98775.75
2023-04-25T04:43:00.193Z,98766.69
2023-04-25T04:46:07.737Z,98774.91
2023-04-25T04:49:07.907Z,98773.28
2023-04-25T04:51:46.727Z,98780.28
2023-04-25T04:54:38.881Z,98774.69
2023-04-25T04:57:29.163Z,98782.72
2023-04-25T05:00:26.227Z,98771.25
2023-04-25T05:03:23.938Z,98771.44
2023-04-25T05:06:07.521Z,98779.38
2023-04-25T05:09:02.066Z,98782.91
2023-04-25T05:11:53.695Z,98783.44
2023-04-25T05:14:51.888Z,98773.25
2023-04-25T05:17:40.553Z,98776.38
2023-04-25T05:20:46.590Z,98786.50
2023-04-25T05:23:30.728Z,98789.19
2023-04-25T05:26:38.804Z,98779.91
2023-04-25T05:29:24.553Z,98786.66
2023-04-25T05:32:27.213Z,98769.88
2023-04-25T05:35:00.748Z,98781.69
2023-04-25T05:37:43.852Z,98776.63
2023-04-25T05:40:19.765Z,98785.41
2023-04-25T05:42:59.752Z,98782.81
2023-04-25T05:45:41.947Z,98779.38
2023-04-25T05:48:34.242Z,98767.44
2023-04-25T05:51:38.329Z,98774.69
2023-04-25T05:54:38.378Z,98778.72
2023-04-25T05:57:17.188Z,98779.03
2023-04-25T05:59:46.150Z,98772.28
2023-04-25T06:02:30.581Z,98782.63
2023-04-25T06:05:02.891Z,98778.78
2023-04-25T06:07:38.731Z,98784.28
2023-04-25T06:10:12.461Z,98767.63
2023-04-25T06:12:44.224Z,98772.31
2023-04-25T06:15:28.069Z,98764.09
2023-04-25T06:18:01.530Z,98772.13
2023-04-25T06:20:31.276Z,98773.13
2023-04-25T06:23:02.003Z,98765.63
2023-04-25T06:26:08.358Z,98763.47
2023-04-25T06:28:41.461Z,98767.41
2023-04-25T06:31:11.965Z,98764.56
2023-04-25T06:33:50.471Z,98780.63
2023-04-25T06:36:26.018Z,98771.63
2023-04-25T06:39:00.431Z,98764.94
2023-04-25T06:41:37.981Z,98757.72
2023-04-25T06:44:11.934Z,98755.03
2023-04-25T06:46:53.394Z,98757.63
2023-04-25T06:49:26.244Z,98751.59
2023-04-25T06:51:59.068Z,98752.38
2023-04-25T06:54:37.304Z,98753.41
2023-04-25T06:57:35.021Z,98747.09
2023-04-25T07:00:26.040Z,98748.28
2023-04-25T07:02:57.302Z,98740.00
2023-04-25T07:05:26.834Z,98749.56
2023-04-25T07:07:58.485Z,98729.41
2023-04-25T07:10:29.279Z,98738.50
2023-04-25T07:13:00.289Z,98737.28
2023-04-25T07:15:32.144Z,98737.28
2023-04-25T07:18:09.282Z,98737.81
2023-04-25T07:20:43.988Z,98735.56
2023-04-25T07:23:15.801Z,98743.91
2023-04-25T07:25:47.065Z,98728.97
2023-04-25T07:28:21.876Z,98730.59
2023-04-25T07:30:53.664Z,98734.50
2023-04-25T07:33:24.779Z,98728.63
2023-04-25T07:35:56.047Z,98726.63
2023-04-25T07:38:27.840Z,98722.41
2023-04-25T07:40:59.299Z,98717.34
2023-04-25T07:43:37.189Z,98716.38
2023-04-25T07:46:07.536Z,98704.13
2023-04-25T07:48:50.103Z,98709.31
2023-04-25T07:51:21.414Z,98718.03
2023-04-25T07:53:57.304Z,98711.94
2023-04-25T07:56:38.475Z,98729.66
2023-04-25T07:59:18.126Z,98719.31
2023-04-25T08:01:50.538Z,98705.47
2023-04-25T08:04:22.883Z,98706.75
2023-04-25T08:06:59.497Z,98721.97
2023-04-25T08:09:45.626Z,98725.16
2023-04-25T08:12:29.638Z,98697.03
2023-04-25T08:15:00.931Z,98696.16
2023-04-25T08:17:46.505Z,98694.06
2023-04-25T08:20:18.606Z,98691.31
2023-04-25T08:22:52.516Z,98704.03
2023-04-25T08:25:38.149Z,98709.00
2023-04-25T08:28:07.701Z,98710.72
2023-04-25T08:30:42.506Z,98695.09
2023-04-25T08:33:18.847Z,98691.97
2023-04-25T08:36:24.509Z,98677.09
2023-04-25T08:39:06.810Z,98691.78
2023-04-25T08:41:50.263Z,98672.81
2023-04-25T08:44:24.230Z,98676.28
2023-04-25T08:46:57.040Z,98673.06
2023-04-25T08:49:35.620Z,98683.38
2023-04-25T08:52:07.420Z,98683.66
2023-04-25T08:54:46.249Z,98674.34
2023-04-25T08:57:15.359Z,98683.09
2023-04-25T08:59:52.239Z,98673.53
2023-04-25T09:02:27.786Z,98668.53
2023-04-25T09:04:57.586Z,98670.50
2023-04-25T09:07:26.843Z,98665.84
2023-04-25T09:10:00.790Z,98668.72
2023-04-25T09:12:40.898Z,98679.72
2023-04-25T09:18:30.815Z,98669.22
2023-04-25T09:21:13.628Z,98665.34
2023-04-25T09:23:56.598Z,98674.59
2023-04-25T09:26:32.857Z,98678.84
2023-04-25T09:29:14.121Z,98683.09
2023-04-25T09:31:49.065Z,98682.75
2023-04-25T09:34:42.302Z,98682.59
2023-04-25T09:37:19.844Z,98699.78
2023-04-25T09:40:19.945Z,98720.28
2023-04-25T09:43:20.671Z,98710.84
2023-04-25T09:45:56.763Z,98707.50
2023-04-25T09:48:27.958Z,98705.94
2023-04-25T09:51:19.197Z,98699.66
2023-04-25T09:53:53.080Z,98710.06
2023-04-25T09:57:07.303Z,98708.28
2023-04-25T09:59:41.913Z,98708.66
2023-04-25T10:02:12.864Z,98709.22
2023-04-25T10:04:51.375Z,98704.88
2023-04-25T10:07:43.965Z,98707.34
2023-04-25T10:10:31.540Z,98704.47
2023-04-25T10:13:08.613Z,98710.69
2023-04-25T10:15:41.818Z,98705.88
2023-04-25T10:18:13.277Z,98693.72
2023-04-25T10:20:45.893Z,98702.25
2023-04-25T10:23:20.116Z,98713.16
2023-04-25T10:25:58.764Z,98712.59
2023-04-25T10:28:37.282Z,98704.72
2023-04-25T10:31:08.856Z,98693.88
2023-04-25T10:33:43.479Z,98706.81
2023-04-25T10:36:13.906Z,98701.38
2023-04-25T10:38:47.743Z,98696.69
2023-04-25T10:41:17.486Z,98683.59
2023-04-25T10:43:51.969Z,98678.69
2023-04-25T10:46:33.168Z,98678.69
2023-04-25T10:49:15.687Z,98670.81
2023-04-25T10:51:55.460Z,98673.09
2023-04-25T10:54:51.743Z,98664.03
2023-04-25T10:57:37.225Z,98663.03
2023-04-25T11:00:25.661Z,98661.38
2023-04-25T11:03:02.036Z,98660.44
2023-04-25T11:05:40.990Z,98648.44
2023-04-25T11:08:38.440Z,98646.03
2023-04-25T11:11:27.038Z,98634.38
2023-04-25T11:13:57.149Z,98620.56
2023-04-25T11:16:28.811Z,98619.81
2023-04-25T11:19:03.949Z,98614.31
2023-04-25T11:21:41.729Z,98609.19
2023-04-25T11:24:15.909Z,98597.28
2023-04-25T11:26:52.101Z,98610.94
2023-04-25T11:29:31.873Z,98618.31
2023-04-25T11:32:06.369Z,98632.59
2023-04-25T11:34:36.005Z,98672.63
2023-04-25T11:37:09.247Z,98690.09
2023-04-25T11:39:40.119Z,98715.69
2023-04-25T11:42:27.307Z,98728.72
2023-04-25T11:45:03.945Z,98734.50
2023-04-25T11:47:43.985Z,98744.25
2023-04-25T11:50:16.230Z,98740.75
2023-04-25T11:52:54.684Z,98729.56
2023-04-25T11:55:26.886Z,98728.88
2023-04-25T11:58:02.473Z,98731.72
2023-04-25T12:00:33.968Z,98722.69
2023-04-25T12:03:09.647Z,98717.19
2023-04-25T12:05:42.418Z,98707.84
2023-04-25T12:08:23.610Z,98705.81
2023-04-25T12:10:52.404Z,98709.63
2023-04-25T12:13:25.408Z,98706.91
2023-04-25T12:16:01.627Z,98706.28
2023-04-25T12:18:42.693Z,98707.13
2023-04-25T12:21:18.435Z,98707.38
2023-04-25T12:23:53.709Z,98701.78
2023-04-25T12:26:31.816Z,98706.03
2023-04-25T12:29:02.646Z,98715.00
2023-04-25T12:31:38.997Z,98692.06
2023-04-25T12:34:11.436Z,98682.34
2023-04-25T12:36:43.305Z,98707.25
2023-04-25T12:39:19.392Z,98697.50
2023-04-25T12:41:50.886Z,98672.66
2023-04-25T12:44:34.516Z,98679.31
2023-04-25T12:47:04.572Z,98697.88
2023-04-25T12:49:38.476Z,98691.00
2023-04-25T12:52:07.510Z,98694.19
2023-04-25T12:54:45.287Z,98675.47
2023-04-25T12:57:29.784Z,98674.22
2023-04-25T13:00:04.483Z,98675.28
2023-04-25T13:02:35.599Z,98676.56
2023-04-25T13:05:05.744Z,98653.00
2023-04-25T13:07:37.163Z,98651.78
2023-04-25T13:10:07.736Z,98652.16
2023-04-25T13:12:36.366Z,98652.66
2023-04-25T13:15:10.355Z,98640.38
2023-04-25T13:17:41.360Z,98649.41
2023-04-25T13:20:11.898Z,98647.13
2023-04-25T13:22:41.204Z,98656.63
2023-04-25T13:25:10.699Z,98648.91
2023-04-25T13:27:44.705Z,98650.66
2023-04-25T13:30:26.172Z,98644.91
2023-04-25T13:32:58.191Z,98652.69
2023-04-25T13:35:30.006Z,98623.75
2023-04-25T13:37:59.601Z,98664.75
2023-04-25T13:40:31.264Z,98656.81
2023-04-25T13:43:03.187Z,98673.06
2023-04-25T13:45:35.144Z,98661.78
2023-04-25T13:48:10.245Z,98672.94
2023-04-25T13:50:41.365Z,98688.94
2023-04-25T13:53:11.997Z,98664.50
2023-04-25T13:55:43.457Z,98673.78
2023-04-25T13:58:16.255Z,98682.41
2023-04-25T14:00:48.625Z,98696.63
2023-04-25T14:03:17.351Z,98670.34
2023-04-25T14:05:47.553Z,98656.56
2023-04-25T14:08:16.655Z,98675.03
2023-04-25T14:10:45.513Z,98681.75
2023-04-25T14:13:15.134Z,98669.16
2023-04-25T14:15:47.193Z,98683.84
2023-04-25T14:18:16.851Z,98691.47
2023-04-25T14:20:46.365Z,98696.09
2023-04-25T14:23:15.903Z,98688.59
2023-04-25T14:25:46.489Z,98682.81
2023-04-25T14:28:27.658Z,98712.19
2023-04-25T14:31:07.739Z,98702.31
2023-04-25T14:33:38.367Z,98717.47
2023-04-25T14:36:09.396Z,98702.38
2023-04-25T14:38:44.787Z,98708.84
2023-04-25T14:41:13.603Z,98701.22
2023-04-25T14:43:44.615Z,98707.16
2023-04-25T14:46:18.784Z,98712.06
2023-04-25T14:48:52.543Z,98711.22
2023-04-25T14:51:26.238Z,98697.53
2023-04-25T14:53:55.599Z,98728.16
2023-04-25T14:56:25.103Z,98696.78
2023-04-25T14:58:56.749Z,98707.44
2023-04-25T15:01:29.764Z,98704.66
2023-04-25T15:03:58.652Z,98740.22
2023-04-25T15:06:29.819Z,98712.59
2023-04-25T15:08:58.566Z,98738.34
2023-04-25T15:11:28.970Z,98721.72
2023-04-25T15:14:06.571Z,98709.66
2023-04-25T15:16:46.205Z,98715.28
2023-04-25T15:19:20.451Z,98731.28
2023-04-25T15:21:52.492Z,98748.75
2023-04-25T15:24:23.749Z,98706.19
2023-04-25T15:26:53.541Z,98737.13
2023-04-25T15:29:24.288Z,98733.31
2023-04-25T15:31:54.802Z,98727.59
2023-04-25T15:34:24.156Z,98728.97
2023-04-25T15:36:59.046Z,98726.81
2023-04-25T15:39:27.712Z,98723.50
2023-04-25T15:41:59.980Z,98747.00
2023-04-25T15:44:30.973Z,98737.19
2023-04-25T15:47:05.005Z,98761.22
2023-04-25T15:49:37.554Z,98772.44
2023-04-25T15:52:09.384Z,98755.91
2023-04-25T15:54:42.561Z,98760.47
2023-04-25T15:57:13.200Z,98760.31
2023-04-25T15:59:42.776Z,98769.78
2023-04-25T16:02:14.887Z,98802.91
2023-04-25T16:04:49.498Z,98782.66
2023-04-25T16:07:23.163Z,98778.72
2023-04-25T16:09:52.953Z,98775.34
2023-04-25T16:12:23.997Z,98790.94
2023-04-25T16:14:52.278Z,98799.06
2023-04-25T16:17:24.370Z,98793.22
2023-04-25T16:19:56.036Z,98779.09
2023-04-25T16:22:28.277Z,98781.44
2023-04-25T16:24:57.500Z,98786.50
2023-04-25T16:27:28.114Z,98782.91
2023-04-25T16:29:57.402Z,98780.34
2023-04-25T16:32:28.600Z,98785.91
2023-04-25T16:34:58.934Z,98796.69
2023-04-25T16:37:39.833Z,98775.47
2023-04-25T16:40:18.571Z,98795.00
2023-04-25T16:42:49.155Z,98786.72
2023-04-25T16:45:21.530Z,98783.25
2023-04-25T16:48:02.643Z,98793.06
2023-04-25T16:50:32.000Z,98786.94
2023-04-25T16:53:12.345Z,98790.47
2023-04-25T16:55:46.868Z,98776.09
2023-04-25T16:58:17.360Z,98788.06
2023-04-25T17:00:49.994Z,98777.78
2023-04-25T17:03:27.049Z,98793.50
2023-04-25T17:06:02.040Z,98817.56
2023-04-25T17:08:36.881Z,98800.38
2023-04-25T17:11:20.648Z,98800.25
2023-04-25T17:13:57.826Z,98808.63
2023-04-25T17:16:37.323Z,98810.31
2023-04-25T17:19:17.050Z,98826.00
2023-04-25T17:21:59.906Z,98835.72
2023-04-25T17:24:38.149Z,98840.88
2023-04-25T17:27:17.025Z,98836.47
2023-04-25T17:29:51.129Z,98842.41
2023-04-25T17:32:29.781Z,98839.41
2023-04-25T17:35:25.308Z,98846.47
2023-04-25T17:38:00.260Z,98846.16
2023-04-25T17:40:32.509Z,98847.69
2023-04-25T17:43:01.778Z,98855.06
2023-04-25T17:45:34.899Z,98858.44
2023-04-25T17:48:09.791Z,98860.63
2023-04-25T17:50:50.161Z,98864.81
2023-04-25T17:53:28.207Z,98866.66
2023-04-25T17:56:01.312Z,98875.50
2023-04-25T17:58:32.559Z,98878.34
2023-04-25T18:01:12.304Z,98883.84
2023-04-25T18:03:53.673Z,98890.03
2023-04-25T18:06:37.195Z,98891.19
2023-04-25T18:09:19.238Z,98891.69
2023-04-25T18:11:59.624Z,98888.84
2023-04-25T18:14:30.942Z,98887.84
2023-04-25T18:17:15.147Z,98894.19
2023-04-25T18:20:02.656Z,98897.72
2023-04-25T18:22:41.741Z,98897.22
2023-04-25T18:25:17.703Z,98907.06
2023-04-25T18:27:56.319Z,98899.88
2023-04-25T18:30:47.756Z,98904.56
2023-04-25T18:33:21.674Z,98916.19
2023-04-25T18:35:59.152Z,98915.88
2023-04-25T18:38:56.208Z,98929.16
2023-04-25T18:41:53.575Z,98936.53
2023-04-25T18:44:32.921Z,98937.69
2023-04-25T18:47:19.172Z,98947.59
2023-04-25T18:49:52.089Z,98943.31
2023-04-25T18:52:29.190Z,98950.97
2023-04-25T18:55:18.847Z,98951.81
2023-04-25T18:57:54.704Z,98965.06
2023-04-25T19:00:34.195Z,98964.72
2023-04-25T19:03:11.271Z,98961.84
2023-04-25T19:05:43.217Z,98964.31
2023-04-25T19:08:24.867Z,98973.03
2023-04-25T19:11:17.999Z,98971.38
2023-04-25T19:14:05.693Z,98974.47
2023-04-25T19:16:47.522Z,98976.16
2023-04-25T19:19:24.678Z,98982.31
2023-04-25T19:22:03.468Z,98978.28
2023-04-25T19:27:30.960Z,98978.44
2023-04-25T19:30:12.118Z,98998.06
2023-04-25T19:32:50.170Z,98998.13
2023-04-25T19:35:22.332Z,98993.59
2023-04-25T19:38:04.888Z,98994.53
2023-04-25T19:40:45.241Z,98996.38
2023-04-25T19:43:22.740Z,99002.63
2023-04-25T19:45:52.406Z,99007.00
2023-04-25T19:48:30.502Z,99011.16
2023-04-25T19:51:07.479Z,99016.22
2023-04-25T19:53:49.126Z,99005.59
2023-04-25T19:56:28.446Z,99020.03
2023-04-25T19:59:10.427Z,99038.00
2023-04-25T20:01:46.428Z,99026.47
2023-04-25T20:04:24.595Z,99021.34
2023-04-25T20:06:56.451Z,99029.97
2023-04-25T20:09:35.770Z,99021.66
2023-04-25T20:12:18.622Z,99025.88
2023-04-25T20:15:02.246Z,99030.06
2023-04-25T20:17:42.668Z,99029.22
2023-04-25T20:20:28.900Z,99032.53
2023-04-25T20:23:00.187Z,99026.06
2023-04-25T20:25:43.979Z,99032.38
2023-04-25T20:28:19.148Z,99034.59
2023-04-25T20:30:56.349Z,99042.38
2023-04-25T20:33:37.861Z,99040.59
2023-04-25T20:36:11.084Z,99047.00
2023-04-25T20:38:48.005Z,99049.31
2023-04-25T20:41:17.815Z,99052.94
2023-04-25T20:43:53.505Z,99062.16
2023-04-25T20:46:23.824Z,99061.38
2023-04-25T20:48:54.576Z,99066.50
2023-04-25T20:51:25.177Z,99065.59
2023-04-25T20:53:57.641Z,99073.69
2023-04-25T20:56:36.706Z,99077.94
2023-04-25T20:59:16.067Z,99075.25
2023-04-25T21:01:57.367Z,99087.78
2023-04-25T21:04:26.535Z,99075.75
2023-04-25T21:07:08.044Z,99084.66
2023-04-25T21:09:45.850Z,99087.78
2023-04-25T21:12:17.586Z,99096.38
2023-04-25T21:14:57.428Z,99099.66
2023-04-25T21:17:28.698Z,99104.69
2023-04-25T21:20:07.435Z,99111.78
2023-04-25T21:22:44.393Z,99113.78
2023-04-25T21:25:20.426Z,99110.16
2023-04-25T21:27:57.177Z,99111.66
2023-04-25T21:30:34.113Z,99116.97
2023-04-25T21:33:06.538Z,99118.94
2023-04-25T21:35:41.059Z,99116.63
2023-04-25T21:38:11.614Z,99131.28
2023-04-25T21:40:43.608Z,99121.31
2023-04-25T21:43:17.591Z,99134.06
2023-04-25T21:46:14.782Z,99137.47
2023-04-25T21:48:40.106Z,99139.44
2023-04-25T21:51:08.472Z,99133.44
2023-04-25T21:53:37.704Z,99141.50
2023-04-25T21:56:08.459Z,99134.72
2023-04-25T21:58:47.078Z,99133.25
2023-04-25T22:01:23.508Z,99156.22
2023-04-25T22:04:06.850Z,99150.22
2023-04-25T22:06:50.855Z,99168.44
2023-04-25T22:09:22.205Z,99151.88
2023-04-25T22:11:53.506Z,99168.47
2023-04-25T22:14:24.382Z,99161.09
2023-04-25T22:16:56.813Z,99167.28
2023-04-25T22:19:33.857Z,99173.59
2023-04-25T22:22:05.376Z,99173.16
2023-04-25T22:24:34.919Z,99176.72
2023-04-25T22:27:09.564Z,99179.41
2023-04-25T22:29:41.811Z,99182.13
2023-04-25T22:32:11.136Z,99182.81
2023-04-25T22:34:46.333Z,99212.53
2023-04-25T22:37:16.778Z,99191.72
2023-04-25T22:39:46.111Z,99197.06
2023-04-25T22:42:14.987Z,99202.47
2023-04-25T22:44:57.300Z,99192.19
2023-04-25T22:47:36.858Z,99197.16
2023-04-25T22:50:12.318Z,99196.66
2023-04-25T22:52:42.606Z,99201.50
2023-04-25T22:55:22.378Z,99204.91
2023-04-25T22:58:00.448Z,99195.91
2023-04-25T23:00:39.908Z,99203.63
2023-04-25T23:03:08.557Z,99212.47
2023-04-25T23:05:47.663Z,99209.03
2023-04-25T23:08:19.513Z,99215.19
2023-04-25T23:10:53.551Z,99228.31
2023-04-25T23:13:23.323Z,99217.25
2023-04-25T23:16:02.140Z,99221.31
2023-04-25T23:18:45.096Z,99210.16
2023-04-25T23:21:17.118Z,99240.59
2023-04-25T23:23:46.883Z,99237.59
2023-04-25T23:26:17.631Z,99232.94
2023-04-25T23:28:55.477Z,99239.59
2023-04-25T23:31:29.843Z,99237.78
2023-04-25T23:34:06.232Z,99240.31
2023-04-25T23:36:39.404Z,99238.44
2023-04-25T23:39:14.458Z,99244.47
2023-04-25T23:41:50.544Z,99238.56
2023-04-25T23:44:20.342Z,99251.69
2023-04-25T23:46:55.710Z,99252.72
2023-04-25T23:49:25.996Z,99237.59
2023-04-25T23:51:57.917Z,99251.09
2023-04-25T23:54:26.744Z,99246.06
2023-04-25T23:56:58.381Z,99241.94
2023-04-25T23:59:34.403Z,99249.16
